createdAt,value
2022-11-30T17:13:59.637Z,34.53
2022-11-30T17:15:03.462Z,38.88
2022-11-30T17:16:06.151Z,37.80
2022-11-30T17:17:10.620Z,38.58
2022-11-30T17:18:12.732Z,38.92
2022-11-30T17:19:15.351Z,37.78
2022-11-30T17:20:20.626Z,38.97
2022-11-30T17:21:32.986Z,38.13
2022-11-30T17:22:38.055Z,36.75
2022-11-30T17:23:41.892Z,37.50
2022-11-30T17:24:44.082Z,37.92
2022-11-30T17:25:47.561Z,38.97
2022-11-30T17:26:51.079Z,37.92
2022-11-30T17:27:53.643Z,36.45
2022-11-30T17:28:56.145Z,39.88
2022-11-30T17:29:58.613Z,40.80
2022-11-30T17:31:01.816Z,38.75
2022-11-30T17:32:07.054Z,36.50
2022-11-30T17:33:09.470Z,40.60
2022-11-30T17:34:12.028Z,35.25
2022-11-30T17:35:16.329Z,38.22
2022-11-30T17:36:21.268Z,36.80
2022-11-30T17:37:23.957Z,36.92
2022-11-30T17:38:28.234Z,36.10
2022-11-30T17:39:31.074Z,37.55
2022-11-30T17:40:33.754Z,37.25
2022-11-30T17:41:38.419Z,36.95
2022-11-30T17:42:42.911Z,33.90
2022-11-30T17:43:45.532Z,35.80
2022-11-30T17:44:48.323Z,35.58
2022-11-30T17:45:51.029Z,34.35
2022-11-30T17:46:55.799Z,33.38
2022-11-30T17:47:57.884Z,35.00
2022-11-30T17:49:01.213Z,34.60
2022-11-30T17:50:03.782Z,35.08
2022-11-30T17:51:06.513Z,32.92
2022-11-30T17:52:09.357Z,34.08
2022-11-30T17:53:16.784Z,32.65
2022-11-30T17:54:20.436Z,32.47
2022-11-30T17:55:22.689Z,35.47
2022-11-30T17:56:24.953Z,33.35
2022-11-30T17:57:27.627Z,34.03
2022-11-30T17:58:36.038Z,34.22
2022-11-30T17:59:41.473Z,34.40
2022-11-30T18:00:45.137Z,32.70
2022-11-30T18:01:54.377Z,33.20
2022-11-30T18:03:01.074Z,33.85
2022-11-30T18:04:03.882Z,34.13
2022-11-30T18:05:08.119Z,33.40
2022-11-30T18:06:20.127Z,32.85
2022-11-30T18:08:19.187Z,32.10
2022-11-30T18:09:42.489Z,30.73
2022-11-30T18:10:50.115Z,33.15
2022-11-30T18:12:02.646Z,32.10
2022-11-30T18:13:13.884Z,35.15
2022-11-30T18:14:17.183Z,45.20
2022-11-30T18:15:43.919Z,32.03
2022-11-30T18:18:28.159Z,30.52
2022-11-30T18:21:41.566Z,38.95
2022-11-30T18:23:16.427Z,33.65
2022-11-30T18:27:48.109Z,32.35
2022-11-30T18:29:30.930Z,34.50
2022-11-30T18:39:32.957Z,32.95
2022-11-30T18:41:14.811Z,34.03
2022-11-30T18:43:53.541Z,36.13
2022-11-30T18:45:36.667Z,35.47
2022-11-30T18:47:24.228Z,36.45
2022-11-30T18:48:44.181Z,37.55
2022-11-30T18:49:52.092Z,38.38
2022-11-30T18:51:21.774Z,39.97
2022-11-30T18:52:23.997Z,38.45
2022-11-30T18:53:27.075Z,35.90
2022-11-30T18:54:33.487Z,36.60
2022-11-30T18:55:40.769Z,36.88
2022-11-30T18:56:44.702Z,37.67
2022-11-30T18:57:58.747Z,39.30
2022-11-30T18:59:14.939Z,38.72
2022-11-30T19:00:18.774Z,37.15
2022-11-30T19:01:21.967Z,38.97
2022-11-30T19:02:25.948Z,39.47
2022-11-30T19:03:29.506Z,39.13
2022-11-30T19:04:43.671Z,38.30
2022-11-30T19:05:47.889Z,38.50
2022-11-30T19:06:55.312Z,38.20
2022-11-30T19:08:00.130Z,38.47
2022-11-30T19:09:18.077Z,38.35
2022-11-30T19:10:23.550Z,37.85
2022-11-30T19:11:39.386Z,42.42
2022-11-30T19:12:48.084Z,37.38
2022-11-30T19:13:58.243Z,36.45
2022-11-30T19:15:19.973Z,36.33
2022-11-30T19:16:49.252Z,37.55
2022-11-30T19:18:11.410Z,36.40
2022-11-30T19:20:53.784Z,33.92
2022-11-30T19:22:02.702Z,37.65
2022-11-30T19:23:12.058Z,37.00
2022-11-30T19:24:29.354Z,35.42
2022-11-30T19:25:40.623Z,37.17
2022-11-30T19:26:53.788Z,36.50
2022-11-30T19:28:03.653Z,35.58
2022-11-30T19:29:45.759Z,36.58
2022-11-30T19:31:20.275Z,36.47
2022-11-30T19:32:31.874Z,35.90
2022-11-30T19:35:04.778Z,35.78
2022-11-30T19:36:19.931Z,36.28
2022-11-30T19:37:37.541Z,33.90
2022-11-30T19:38:44.380Z,35.72
2022-11-30T19:40:13.414Z,38.17
2022-11-30T19:41:19.846Z,36.53
2022-11-30T19:42:27.745Z,35.83
2022-11-30T19:43:34.849Z,35.47
2022-11-30T19:44:48.021Z,36.75
2022-11-30T19:46:14.468Z,35.47
2022-11-30T19:47:26.927Z,35.03
2022-11-30T19:48:42.319Z,35.05
2022-11-30T19:49:54.602Z,34.83
2022-11-30T19:51:10.966Z,34.22
2022-11-30T19:52:22.969Z,34.13
2022-11-30T19:53:28.724Z,34.85
2022-11-30T19:54:39.710Z,33.65
2022-11-30T19:55:44.859Z,36.05
2022-11-30T19:56:50.406Z,37.70
2022-11-30T19:58:10.554Z,37.25
2022-11-30T19:59:19.640Z,35.80
2022-11-30T20:00:24.298Z,37.40
2022-11-30T20:01:28.800Z,35.78
2022-11-30T20:02:40.709Z,35.13
2022-11-30T20:03:46.870Z,35.33
2022-11-30T20:04:55.799Z,35.30
2022-11-30T20:06:02.834Z,36.55
2022-11-30T20:07:06.591Z,36.10
2022-11-30T20:08:23.377Z,34.20
2022-11-30T20:09:27.346Z,35.28
2022-11-30T20:10:32.207Z,36.58
2022-11-30T20:11:38.458Z,35.42
2022-11-30T20:12:46.280Z,37.78
2022-11-30T20:15:09.436Z,34.78
2022-11-30T20:16:22.171Z,37.75
2022-11-30T20:17:26.527Z,37.53
2022-11-30T20:18:33.356Z,36.85
2022-11-30T20:19:38.688Z,37.17
2022-11-30T20:20:48.814Z,35.78
2022-11-30T20:21:56.251Z,35.75
2022-11-30T20:23:08.427Z,36.00
2022-11-30T20:24:15.696Z,36.67
2022-11-30T20:25:22.916Z,37.33
2022-11-30T20:26:30.181Z,38.40
2022-11-30T20:27:36.180Z,36.88
2022-11-30T20:28:43.002Z,37.05
2022-11-30T20:29:47.860Z,37.45
2022-11-30T20:30:56.166Z,38.42
2022-11-30T20:32:03.491Z,36.53
2022-11-30T20:33:06.408Z,36.28
2022-11-30T20:34:12.464Z,37.25
2022-11-30T20:35:19.152Z,36.95
2022-11-30T20:36:28.761Z,37.08
2022-11-30T20:37:32.088Z,38.22
2022-11-30T20:38:39.491Z,39.45
2022-11-30T20:39:47.768Z,38.10
2022-11-30T20:40:50.781Z,38.40
2022-11-30T20:41:54.391Z,37.67
2022-11-30T20:42:58.085Z,38.35
2022-11-30T20:44:02.557Z,38.88
2022-11-30T20:45:09.531Z,38.03
2022-11-30T20:46:29.664Z,39.33
2022-11-30T20:47:36.770Z,37.35
2022-11-30T20:48:47.629Z,37.60
2022-11-30T20:49:50.904Z,38.55
2022-11-30T20:51:28.205Z,40.08
2022-11-30T20:52:26.867Z,37.65
2022-11-30T20:53:31.560Z,36.42
2022-11-30T20:54:42.499Z,37.83
2022-11-30T20:55:50.613Z,37.10
2022-11-30T20:56:57.986Z,38.90
2022-11-30T20:58:03.085Z,39.33
2022-11-30T20:59:25.198Z,37.30
2022-11-30T21:00:31.588Z,38.17
2022-11-30T21:01:40.899Z,37.67
2022-11-30T21:02:45.938Z,38.67
2022-11-30T21:03:53.388Z,39.55
2022-11-30T21:04:57.174Z,38.67
2022-11-30T21:06:00.624Z,40.85
2022-11-30T21:07:10.218Z,38.90
2022-11-30T21:08:17.132Z,38.25
2022-11-30T21:09:21.047Z,39.85
2022-11-30T21:10:26.787Z,37.92
2022-11-30T21:11:33.795Z,40.40
2022-11-30T21:12:39.155Z,38.80
2022-11-30T21:13:49.376Z,40.47
2022-11-30T21:14:56.647Z,38.58
2022-11-30T21:17:16.188Z,36.97
2022-11-30T21:19:53.082Z,38.00
2022-11-30T21:21:17.182Z,41.08
2022-11-30T21:22:20.258Z,38.45
2022-11-30T21:23:34.200Z,41.50
2022-11-30T21:24:40.095Z,40.42
2022-11-30T21:25:50.906Z,41.85
2022-11-30T21:26:58.408Z,39.80
2022-11-30T21:28:01.611Z,40.67
2022-11-30T21:29:14.882Z,40.80
2022-11-30T21:30:21.811Z,39.42
2022-11-30T21:31:24.984Z,40.25
2022-11-30T21:32:29.964Z,39.35
2022-11-30T21:33:36.713Z,40.03
2022-11-30T21:34:45.257Z,40.97
2022-11-30T21:35:59.773Z,38.65
2022-11-30T21:37:07.289Z,39.65
2022-11-30T21:38:14.926Z,40.05
2022-11-30T21:39:20.839Z,38.90
2022-11-30T21:40:24.638Z,39.15
2022-11-30T21:41:29.149Z,41.80
2022-11-30T21:42:31.959Z,40.42
2022-11-30T21:43:39.254Z,40.80
2022-11-30T21:44:42.120Z,40.92
2022-11-30T21:45:45.874Z,40.53
2022-11-30T21:46:56.527Z,43.08
2022-11-30T21:48:06.743Z,43.50
2022-11-30T21:49:14.487Z,43.75
2022-11-30T21:50:21.849Z,44.22
2022-11-30T21:51:35.713Z,41.72
2022-11-30T21:52:47.330Z,43.17
2022-11-30T21:54:02.510Z,46.30
2022-11-30T21:55:12.487Z,43.92
2022-11-30T21:56:24.849Z,46.78
2022-11-30T21:57:31.562Z,41.55
2022-11-30T21:58:53.480Z,42.05
2022-11-30T22:00:18.874Z,40.90
2022-11-30T22:01:38.200Z,43.13
2022-11-30T22:02:42.073Z,47.45
2022-11-30T22:03:55.616Z,48.55
2022-11-30T22:05:07.458Z,51.15
2022-11-30T22:06:14.220Z,51.20
2022-11-30T22:07:18.708Z,46.35
2022-11-30T22:08:22.991Z,44.45
2022-11-30T22:09:26.868Z,43.50
2022-11-30T22:10:34.735Z,44.80
2022-11-30T22:11:46.481Z,43.78
2022-11-30T22:12:57.795Z,45.75
2022-11-30T22:14:22.850Z,44.05
2022-11-30T22:15:29.613Z,42.85
2022-11-30T22:16:38.897Z,43.72
2022-11-30T22:17:42.849Z,45.08
2022-11-30T22:18:52.270Z,43.03
2022-11-30T22:20:01.383Z,41.83
2022-11-30T22:21:11.018Z,42.63
2022-11-30T22:22:22.706Z,44.97
2022-11-30T22:23:33.249Z,41.78
2022-11-30T22:24:40.967Z,41.95
2022-11-30T22:25:44.678Z,41.38
2022-11-30T22:26:55.073Z,42.22
2022-11-30T22:28:03.380Z,40.90
2022-11-30T22:29:22.748Z,42.03
2022-11-30T22:30:33.728Z,42.35
2022-11-30T22:31:49.542Z,38.47
2022-11-30T22:32:57.243Z,40.42
2022-11-30T22:34:04.519Z,41.78
2022-11-30T22:35:11.211Z,39.85
2022-11-30T22:36:16.901Z,40.25
2022-11-30T22:37:22.755Z,42.67
2022-11-30T22:38:26.918Z,39.10
2022-11-30T22:39:30.238Z,40.70
2022-11-30T22:40:34.265Z,40.78
2022-11-30T22:41:45.120Z,40.50
2022-11-30T22:42:53.541Z,41.17
2022-11-30T22:44:06.268Z,39.88
2022-11-30T22:45:23.882Z,42.53
2022-11-30T22:46:29.849Z,36.60
2022-11-30T22:47:34.210Z,41.55
2022-11-30T22:48:39.397Z,38.15
2022-11-30T22:50:03.931Z,38.85
2022-11-30T22:51:23.059Z,38.42
2022-11-30T22:53:00.934Z,37.83
2022-11-30T22:53:53.766Z,38.33
2022-11-30T22:55:03.941Z,39.53
2022-11-30T22:56:13.571Z,39.55
2022-11-30T22:57:18.864Z,40.78
2022-11-30T22:58:29.519Z,38.63
2022-11-30T22:59:37.918Z,39.22
2022-11-30T23:00:43.888Z,40.90
2022-11-30T23:01:57.877Z,38.42
2022-11-30T23:04:19.187Z,35.92
2022-11-30T23:05:29.037Z,39.53
2022-11-30T23:07:53.852Z,37.08
2022-11-30T23:09:00.745Z,38.30
2022-11-30T23:10:06.290Z,39.63
2022-11-30T23:11:15.306Z,39.05
2022-11-30T23:12:43.230Z,38.03
2022-11-30T23:13:46.432Z,38.67
2022-11-30T23:14:49.699Z,40.45
2022-11-30T23:15:59.297Z,39.65
2022-11-30T23:17:05.999Z,39.60
2022-11-30T23:18:08.693Z,39.60
2022-11-30T23:19:12.642Z,39.38
2022-11-30T23:20:21.068Z,38.72
2022-11-30T23:21:30.369Z,39.90
2022-11-30T23:22:38.668Z,39.58
2022-11-30T23:23:44.849Z,39.97
2022-11-30T23:24:52.723Z,42.15
2022-11-30T23:25:56.500Z,41.58
2022-11-30T23:27:08.814Z,41.33
2022-11-30T23:28:13.005Z,42.22
2022-11-30T23:29:22.994Z,42.10
2022-11-30T23:31:44.380Z,41.17
2022-11-30T23:32:55.510Z,42.42
2022-11-30T23:34:12.188Z,42.33
2022-11-30T23:35:25.579Z,44.55
2022-11-30T23:36:31.931Z,42.35
2022-11-30T23:37:41.978Z,42.50
2022-11-30T23:38:55.975Z,41.72
2022-11-30T23:40:00.245Z,38.83
2022-11-30T23:41:11.888Z,39.92
2022-11-30T23:42:21.613Z,38.50
2022-11-30T23:43:34.026Z,37.63
2022-11-30T23:44:48.884Z,40.88
2022-11-30T23:47:31.308Z,36.25
2022-11-30T23:49:15.657Z,33.97
2022-11-30T23:50:22.810Z,35.70
2022-11-30T23:51:32.394Z,35.03
2022-11-30T23:52:39.107Z,36.45
2022-11-30T23:53:55.247Z,36.40
2022-11-30T23:55:04.582Z,35.45
2022-11-30T23:56:15.236Z,35.30
2022-11-30T23:57:20.612Z,34.00
2022-11-30T23:58:31.300Z,36.97
2022-11-30T23:59:39.768Z,32.97
